Time;durP1;ratioP1;P1;durP2;ratioP2;P2;SDS_P1;SDS_P2;PMS_P1;PMS_P2;Temp;Humidity;BMP_temperature;BMP_pressure;BME280_temperature;BME280_humidity;BME280_pressure;Samples;Min_cycle;Max_cycle;Signal;HPM_P1;HPM_P2
2022/02/05 00:00:30;;;;;;;23.33;16.47;;;4.90;73.50;;;;;;5031246;28;20536;-85
2022/02/05 00:08:26;;;;;;;22.67;15.93;;;4.90;72.80;;;;;;5035452;28;20032;-84
2022/02/05 00:43:06;;;;;;;22.50;14.70;;;4.90;72.80;;;;;;5034467;28;20025;-85
2022/02/05 00:45:35;;;;;;;20.37;13.93;;;4.90;72.80;;;;;;5031220;28;20021;-85
2022/02/05 00:48:06;;;;;;;21.03;13.90;;;5.00;72.90;;;;;;5029773;28;20381;-84
2022/02/05 00:50:36;;;;;;;24.63;15.17;;;5.00;72.90;;;;;;5030818;28;20033;-85
2022/02/05 00:53:08;;;;;;;20.47;13.90;;;5.00;72.70;;;;;;5028834;28;20028;-85
2022/02/05 00:55:39;;;;;;;24.63;15.70;;;4.90;72.90;;;;;;5029674;28;20392;-85
2022/02/05 00:58:06;;;;;;;21.37;14.90;;;4.90;73.00;;;;;;5028387;28;20140;-85
2022/02/05 01:00:34;;;;;;;19.20;14.33;;;4.90;73.00;;;;;;5029837;28;20033;-84
2022/02/05 01:03:00;;;;;;;18.23;13.53;;;4.90;72.90;;;;;;5029812;28;20068;-85
2022/02/05 01:05:27;;;;;;;21.60;14.73;;;4.90;73.20;;;;;;5030404;28;20025;-86
2022/02/05 01:07:56;;;;;;;20.73;14.77;;;5.00;73.10;;;;;;5024180;28;20032;-85
2022/02/05 01:10:26;;;;;;;18.53;13.13;;;5.00;73.00;;;;;;5027772;28;20072;-84
2022/02/05 01:13:06;;;;;;;21.73;12.70;;;5.10;73.50;;;;;;5026500;28;20061;-85
2022/02/05 01:15:42;;;;;;;18.77;12.07;;;5.10;73.20;;;;;;5028915;28;20459;-85
2022/02/05 01:18:11;;;;;;;17.37;12.13;;;5.10;73.10;;;;;;5026658;28;20473;-84
2022/02/05 01:23:15;;;;;;;20.13;12.20;;;5.00;72.80;;;;;;5032044;28;20443;-85
2022/02/05 01:25:47;;;;;;;19.40;12.33;;;5.00;73.10;;;;;;5030150;28;20039;-85
2022/02/05 01:28:18;;;;;;;17.40;11.32;;;5.10;73.20;;;;;;5025995;28;20038;-85
2022/02/05 01:30:48;;;;;;;19.40;10.93;;;5.10;73.20;;;;;;5027467;28;20132;-84
2022/02/05 01:36:28;;;;;;;15.73;10.47;;;5.20;73.30;;;;;;5036356;28;20079;-84
2022/02/05 02:07:01;;;;;;;23.90;17.07;;;4.70;74.10;;;;;;5031082;28;20048;-85
2022/02/05 02:11:58;;;;;;;18.97;13.47;;;4.70;74.10;;;;;;5025440;28;20036;-84
2022/02/05 02:23:15;;;;;;;23.00;14.33;;;4.60;74.50;;;;;;5033704;28;20102;-85
2022/02/05 02:28:14;;;;;;;18.27;12.43;;;4.70;74.10;;;;;;5034032;28;20095;-85
2022/02/05 02:30:52;;;;;;;22.95;14.45;;;4.70;74.30;;;;;;5031238;28;20040;-85
2022/02/05 02:33:27;;;;;;;18.37;13.77;;;4.70;74.40;;;;;;5031594;28;20523;-84
2022/02/05 02:35:53;;;;;;;20.57;14.10;;;4.80;74.30;;;;;;5026261;28;20379;-83
2022/02/05 02:38:23;;;;;;;21.37;12.97;;;4.80;74.20;;;;;;5033010;28;20099;-84
2022/02/05 02:41:03;;;;;;;20.43;14.57;;;4.80;73.90;;;;;;5032452;28;20033;-84
2022/02/05 02:43:31;;;;;;;19.70;14.90;;;4.80;73.90;;;;;;5031141;28;20391;-84
2022/02/05 02:45:57;;;;;;;18.20;14.80;;;4.80;74.00;;;;;;5032954;28;20369;-85
2022/02/05 02:48:23;;;;;;;23.97;14.30;;;4.80;74.00;;;;;;5032145;28;20064;-85
2022/02/05 02:59:06;;;;;;;19.37;13.00;;;4.70;74.30;;;;;;5032706;28;20079;-84
2022/02/05 03:01:35;;;;;;;21.47;12.97;;;4.80;74.70;;;;;;5027304;28;20032;-83
2022/02/05 03:04:00;;;;;;;17.83;12.03;;;4.80;74.40;;;;;;5031366;28;20021;-84
2022/02/05 03:06:26;;;;;;;18.47;11.70;;;4.90;74.50;;;;;;5027217;28;20395;-84
2022/02/05 03:08:52;;;;;;;16.80;11.37;;;4.80;74.20;;;;;;5032252;28;20461;-84
2022/02/05 03:11:19;;;;;;;18.30;11.47;;;4.90;74.40;;;;;;5031775;28;20029;-83
2022/02/05 03:13:46;;;;;;;19.20;12.57;;;4.90;74.20;;;;;;5031177;28;20025;-84
2022/02/05 03:16:21;;;;;;;14.67;11.10;;;5.00;74.20;;;;;;5025290;28;20022;-84
2022/02/05 03:19:09;;;;;;;21.47;13.13;;;4.90;74.00;;;;;;5031446;28;20037;-84
2022/02/05 03:21:35;;;;;;;18.37;12.87;;;4.90;74.10;;;;;;5018755;28;20033;-84
2022/02/05 03:24:03;;;;;;;17.03;13.23;;;5.00;74.20;;;;;;5032086;28;20033;-85
2022/02/05 03:26:28;;;;;;;20.93;13.40;;;5.10;74.10;;;;;;5023885;28;20179;-85
2022/02/05 03:28:54;;;;;;;17.53;12.87;;;5.10;74.10;;;;;;5023705;28;20112;-83
2022/02/05 03:31:20;;;;;;;18.97;13.93;;;5.10;74.10;;;;;;5027135;28;20768;-84
2022/02/05 03:33:45;;;;;;;16.03;12.00;;;5.00;74.00;;;;;;5028734;28;20021;-84
2022/02/05 03:36:11;;;;;;;17.90;12.47;;;5.00;74.40;;;;;;5029872;28;20021;-84
2022/02/05 03:38:37;;;;;;;17.43;13.10;;;5.10;74.50;;;;;;5033465;28;20112;-84
2022/02/05 03:41:02;;;;;;;16.57;11.13;;;5.10;74.40;;;;;;5031486;28;20032;-84
2022/02/05 03:43:28;;;;;;;21.57;13.27;;;5.20;74.50;;;;;;5028365;28;20033;-84
2022/02/05 03:45:54;;;;;;;19.00;13.67;;;5.20;74.50;;;;;;5025842;28;20029;-84
2022/02/05 03:48:20;;;;;;;20.63;13.67;;;5.20;74.30;;;;;;5029501;28;20041;-84
2022/02/05 03:50:45;;;;;;;18.87;12.30;;;5.20;74.30;;;;;;5031289;28;20024;-84
2022/02/05 03:53:11;;;;;;;17.43;11.87;;;5.20;74.40;;;;;;5026656;28;20225;-84
2022/02/05 03:55:37;;;;;;;20.47;12.07;;;5.20;74.40;;;;;;5030415;28;20027;-84
2022/02/05 03:58:03;;;;;;;15.67;11.63;;;5.20;74.60;;;;;;5030436;28;20021;-84
2022/02/05 04:00:29;;;;;;;14.50;10.83;;;5.20;74.60;;;;;;5028310;28;20112;-84
2022/02/05 04:02:55;;;;;;;13.13;10.30;;;5.30;74.60;;;;;;5031872;28;20033;-84
2022/02/05 04:05:20;;;;;;;14.60;10.53;;;5.40;74.40;;;;;;5028340;28;20064;-84
2022/02/05 04:07:50;;;;;;;14.37;10.53;;;5.50;74.80;;;;;;5031385;28;20022;-85
2022/02/05 04:10:23;;;;;;;18.80;12.13;;;5.60;74.00;;;;;;5028808;28;20547;-85
2022/02/05 04:18:17;;;;;;;18.07;12.60;;;5.30;74.00;;;;;;5031987;28;20044;-85
2022/02/05 04:20:43;;;;;;;19.43;12.43;;;5.30;74.40;;;;;;5031463;28;20033;-85
2022/02/05 04:23:08;;;;;;;16.53;12.97;;;5.20;74.60;;;;;;5026744;28;20048;-85
2022/02/05 04:25:34;;;;;;;14.33;11.57;;;5.30;74.50;;;;;;5028433;28;20045;-85
2022/02/05 04:28:00;;;;;;;17.30;12.40;;;5.30;74.70;;;;;;5029873;28;20034;-85
2022/02/05 04:30:26;;;;;;;12.83;9.80;;;5.30;74.70;;;;;;5029289;28;20029;-85
2022/02/05 04:32:52;;;;;;;12.07;9.43;;;5.30;74.50;;;;;;5030992;28;20452;-85
2022/02/05 04:35:17;;;;;;;14.50;9.00;;;5.40;74.60;;;;;;5028192;28;20057;-85
2022/02/05 04:37:45;;;;;;;10.00;8.43;;;5.50;74.50;;;;;;5030016;28;20064;-84
2022/02/05 04:40:33;;;;;;;14.30;10.00;;;5.50;74.30;;;;;;5042782;28;20496;-83
2022/02/05 05:06:35;;;;;;;7.27;6.03;;;5.60;74.40;;;;;;5032075;28;20036;-85
2022/02/05 05:21:56;;;;;;;5.10;3.27;;;5.80;72.90;;;;;;5023724;28;20171;-84
2022/02/05 05:24:22;;;;;;;6.70;4.40;;;5.90;72.90;;;;;;5031894;28;20464;-84
2022/02/05 05:26:48;;;;;;;6.87;4.53;;;5.90;72.80;;;;;;5022622;28;21080;-85
2022/02/05 05:29:14;;;;;;;8.03;5.27;;;5.90;72.80;;;;;;5025323;28;20026;-85
2022/02/05 05:31:40;;;;;;;7.40;5.23;;;5.90;72.70;;;;;;5030565;28;20030;-85
2022/02/05 05:34:05;;;;;;;6.80;5.80;;;5.80;72.70;;;;;;5029775;28;20021;-84
2022/02/05 05:36:31;;;;;;;6.70;5.43;;;5.80;73.00;;;;;;5026567;28;20400;-85
2022/02/05 05:39:01;;;;;;;7.53;4.90;;;5.80;73.20;;;;;;5025896;28;20444;-84
2022/02/05 05:41:27;;;;;;;7.13;5.03;;;5.80;73.20;;;;;;5030264;28;20030;-85
2022/02/05 05:46:41;;;;;;;8.77;5.43;;;5.80;73.10;;;;;;5028624;28;20025;-85
2022/02/05 05:49:13;;;;;;;5.93;4.35;;;5.90;73.30;;;;;;5027213;28;20045;-85
2022/02/05 05:51:39;;;;;;;7.40;4.65;;;6.00;73.40;;;;;;5021976;28;20029;-85
2022/02/05 05:54:05;;;;;;;6.73;5.00;;;6.00;72.80;;;;;;5021485;28;20396;-85
2022/02/05 05:56:33;;;;;;;7.60;5.10;;;6.00;72.50;;;;;;5021863;28;20044;-85
2022/02/05 05:59:00;;;;;;;7.07;5.33;;;5.90;72.70;;;;;;5023905;28;21583;-84
2022/02/05 06:01:27;;;;;;;3.27;2.33;;;5.90;72.70;;;;;;5024388;28;20443;-85
2022/02/05 06:03:52;;;;;;;4.30;2.73;;;5.80;72.30;;;;;;5020918;28;20032;-85
2022/02/05 06:06:18;;;;;;;5.20;3.43;;;5.90;72.20;;;;;;5027237;28;20021;-85
2022/02/05 06:08:44;;;;;;;8.07;2.90;;;5.90;72.00;;;;;;5026871;28;20029;-85
2022/02/05 06:11:10;;;;;;;5.30;3.50;;;5.90;72.10;;;;;;5009827;28;20044;-85
2022/02/05 06:13:36;;;;;;;6.67;4.23;;;6.20;71.40;;;;;;5023711;28;20043;-85
2022/02/05 06:16:05;;;;;;;8.50;4.30;;;6.10;70.90;;;;;;5024429;28;20059;-84
2022/02/05 06:18:31;;;;;;;6.30;3.70;;;6.00;71.00;;;;;;5026434;28;20171;-84
2022/02/05 06:20:57;;;;;;;7.40;5.43;;;6.00;71.50;;;;;;5025139;28;20124;-85
2022/02/05 06:23:23;;;;;;;7.77;5.50;;;6.00;71.70;;;;;;5026862;28;20048;-85
2022/02/05 06:25:48;;;;;;;5.83;4.40;;;5.90;71.70;;;;;;5024584;28;20029;-83
2022/02/05 06:28:15;;;;;;;9.03;5.50;;;5.90;71.80;;;;;;5020760;28;20111;-84
2022/02/05 06:30:42;;;;;;;12.27;6.77;;;6.00;72.10;;;;;;5024609;28;20060;-84
2022/02/05 06:33:08;;;;;;;11.20;6.73;;;6.00;71.60;;;;;;5025485;28;20033;-84
2022/02/05 06:35:34;;;;;;;9.43;6.20;;;5.90;71.60;;;;;;5026618;28;20021;-84
2022/02/05 06:38:00;;;;;;;12.17;7.63;;;5.90;71.80;;;;;;5024219;28;20064;-85
2022/02/05 06:40:26;;;;;;;11.67;8.03;;;5.90;72.00;;;;;;5024175;28;20968;-84
2022/02/05 06:42:52;;;;;;;11.90;7.77;;;5.80;72.00;;;;;;5023436;28;20025;-84
2022/02/05 06:45:18;;;;;;;9.60;7.10;;;5.80;72.20;;;;;;5020825;28;20030;-85
2022/02/05 06:47:44;;;;;;;11.80;7.10;;;5.80;72.30;;;;;;5026492;28;20092;-84
2022/02/05 06:50:11;;;;;;;9.90;6.63;;;5.80;72.40;;;;;;5026611;28;20025;-85
2022/02/05 06:52:37;;;;;;;12.30;7.90;;;5.80;73.10;;;;;;5028345;28;20487;-84
2022/02/05 06:55:04;;;;;;;10.03;6.30;;;5.80;72.60;;;;;;5027224;28;20026;-84
2022/02/05 06:57:30;;;;;;;8.23;5.40;;;5.90;72.70;;;;;;5027973;28;20025;-84
2022/02/05 06:59:56;;;;;;;11.77;6.30;;;5.90;72.50;;;;;;5027858;28;20076;-84
2022/02/05 07:02:21;;;;;;;10.73;6.93;;;5.90;72.60;;;;;;5022272;28;20030;-84
2022/02/05 07:04:47;;;;;;;12.33;8.40;;;5.90;72.60;;;;;;5025698;28;20537;-84
2022/02/05 07:07:13;;;;;;;8.77;6.40;;;6.00;72.70;;;;;;5029086;28;20108;-84
2022/02/05 07:09:39;;;;;;;6.33;3.00;;;6.00;72.40;;;;;;5025240;28;20063;-84
2022/02/05 07:12:10;;;;;;;7.13;3.13;;;6.10;72.30;;;;;;5025336;28;20438;-84
2022/02/05 07:14:46;;;;;;;5.93;2.53;;;6.10;72.20;;;;;;5030342;28;20120;-84
2022/02/05 07:17:41;;;;;;;3.63;2.90;;;6.10;72.10;;;;;;5029912;28;20014;-84
2022/02/05 07:20:13;;;;;;;7.47;4.80;;;6.20;72.00;;;;;;5032023;28;20392;-84
2022/02/05 07:23:26;;;;;;;8.23;5.53;;;6.10;71.70;;;;;;5030217;28;20076;-84
2022/02/05 07:31:16;;;;;;;9.67;5.30;;;6.00;71.90;;;;;;5027803;28;20036;-83
2022/02/05 07:33:42;;;;;;;7.43;5.73;;;5.90;72.30;;;;;;5030321;28;20053;-84
2022/02/05 07:36:10;;;;;;;7.30;5.43;;;6.00;72.50;;;;;;5029594;28;20112;-84
2022/02/05 07:38:36;;;;;;;8.70;4.30;;;6.10;72.50;;;;;;5029235;28;20033;-84
2022/02/05 07:41:02;;;;;;;6.40;4.40;;;6.10;72.50;;;;;;5031475;28;20128;-84
2022/02/05 07:43:34;;;;;;;6.90;3.70;;;6.20;72.30;;;;;;5029510;28;20029;-84
2022/02/05 07:46:03;;;;;;;4.50;3.10;;;6.20;72.20;;;;;;5031428;28;20030;-84
2022/02/05 07:48:32;;;;;;;6.40;3.80;;;6.20;72.10;;;;;;5030131;28;20053;-84
2022/02/05 07:51:02;;;;;;;4.93;3.23;;;6.20;72.20;;;;;;5031168;28;20022;-84
2022/02/05 07:53:30;;;;;;;4.47;3.17;;;6.30;72.20;;;;;;5029368;28;20040;-84
2022/02/05 07:55:56;;;;;;;5.60;3.10;;;6.40;71.90;;;;;;5028165;28;20057;-84
2022/02/05 07:58:22;;;;;;;8.83;4.03;;;6.30;71.60;;;;;;5029855;28;20025;-84
2022/02/05 08:00:48;;;;;;;8.17;4.67;;;6.30;71.40;;;;;;5027959;28;20040;-84
2022/02/05 08:03:15;;;;;;;5.07;3.60;;;6.30;71.60;;;;;;5030811;28;20034;-84
2022/02/05 08:05:41;;;;;;;7.10;3.57;;;6.30;71.80;;;;;;5027645;28;20481;-84
2022/02/05 08:08:11;;;;;;;8.53;4.00;;;6.30;71.70;;;;;;5030334;28;20026;-84
2022/02/05 08:10:46;;;;;;;5.97;3.23;;;6.30;72.20;;;;;;5029233;28;20029;-84
2022/02/05 08:13:11;;;;;;;6.80;3.67;;;6.30;71.60;;;;;;5028240;28;20026;-84
2022/02/05 08:15:37;;;;;;;5.50;3.87;;;6.30;71.60;;;;;;5028462;28;20395;-84
2022/02/05 08:18:03;;;;;;;7.80;4.37;;;6.30;71.60;;;;;;5027723;28;20048;-85
2022/02/05 08:20:29;;;;;;;5.43;4.23;;;6.40;71.70;;;;;;5030537;28;20064;-84
2022/02/05 08:22:54;;;;;;;6.67;4.00;;;6.30;71.70;;;;;;5030186;28;20459;-84
2022/02/05 08:25:20;;;;;;;8.80;5.03;;;6.40;71.70;;;;;;5029214;28;20614;-84
2022/02/05 08:27:46;;;;;;;7.63;5.10;;;6.40;71.70;;;;;;5030779;28;20030;-84
2022/02/05 08:30:14;;;;;;;6.00;4.53;;;6.40;71.70;;;;;;5027617;28;20117;-84
2022/02/05 08:32:41;;;;;;;6.13;5.33;;;6.40;71.70;;;;;;5027940;28;20037;-84
2022/02/05 08:35:08;;;;;;;5.17;4.30;;;6.40;71.80;;;;;;5029756;28;20053;-84
2022/02/05 08:37:45;;;;;;;6.80;4.80;;;6.40;71.90;;;;;;5031121;28;20029;-84
2022/02/05 08:40:11;;;;;;;12.67;5.83;;;6.40;71.90;;;;;;5025693;28;20030;-84
2022/02/05 08:42:37;;;;;;;12.50;6.07;;;6.40;72.00;;;;;;5030176;28;20063;-84
2022/02/05 08:45:03;;;;;;;9.53;4.67;;;6.50;71.90;;;;;;5028643;28;20057;-85
2022/02/05 08:47:30;;;;;;;9.50;5.47;;;6.50;71.90;;;;;;5028702;28;20136;-85
2022/02/05 08:49:56;;;;;;;9.10;5.80;;;6.60;72.60;;;;;;5027160;28;20072;-84
2022/02/05 08:52:22;;;;;;;6.93;5.87;;;6.60;72.00;;;;;;5026723;28;20452;-85
2022/02/05 08:54:48;;;;;;;11.67;5.80;;;6.70;72.00;;;;;;5022081;28;20036;-85
2022/02/05 08:57:15;;;;;;;7.47;5.20;;;6.70;71.90;;;;;;5029055;28;20108;-85
2022/02/05 08:59:55;;;;;;;6.80;5.33;;;6.70;72.00;;;;;;5040349;28;20400;-84
2022/02/05 09:04:58;;;;;;;7.57;6.40;;;6.90;71.80;;;;;;5027947;28;20052;-84
2022/02/05 09:07:24;;;;;;;9.07;7.00;;;7.00;71.80;;;;;;5025803;28;20144;-84
2022/02/05 09:14:59;;;;;;;12.33;10.33;;;7.10;71.60;;;;;;5026535;28;20179;-85
2022/02/05 09:17:25;;;;;;;8.70;5.87;;;7.10;71.50;;;;;;5027779;28;20091;-83
2022/02/05 09:19:51;;;;;;;17.43;8.43;;;7.20;71.40;;;;;;5027692;28;20393;-83
2022/02/05 09:22:17;;;;;;;63.20;20.83;;;7.20;71.90;;;;;;5028181;28;20041;-83
2022/02/05 09:24:43;;;;;;;22.60;10.37;;;7.30;71.10;;;;;;5029863;28;20033;-84
2022/02/05 09:27:12;;;;;;;13.07;8.20;;;7.40;71.40;;;;;;5012646;28;20473;-84
2022/02/05 09:29:57;;;;;;;14.03;8.17;;;7.60;71.10;;;;;;5026498;28;20051;-84
2022/02/05 09:32:23;;;;;;;11.77;6.83;;;7.70;71.10;;;;;;5028121;28;20029;-84
2022/02/05 09:34:48;;;;;;;8.40;5.67;;;8.00;70.60;;;;;;5028423;28;20079;-84
2022/02/05 09:37:14;;;;;;;11.73;7.03;;;8.00;70.30;;;;;;5017265;28;20429;-84
2022/02/05 09:39:41;;;;;;;10.43;6.00;;;8.10;70.10;;;;;;5024393;28;20025;-84
2022/02/05 09:42:07;;;;;;;9.07;7.00;;;8.30;70.20;;;;;;5029354;28;20033;-84
2022/02/05 09:44:33;;;;;;;11.07;7.40;;;8.30;69.40;;;;;;5025071;28;20174;-84
2022/02/05 09:46:59;;;;;;;15.30;9.20;;;8.30;69.40;;;;;;5029450;28;20132;-84
2022/02/05 09:49:26;;;;;;;16.40;12.03;;;8.40;69.50;;;;;;5028055;28;20393;-84
2022/02/05 09:52:13;;;;;;;10.77;8.27;;;8.50;68.90;;;;;;5023959;28;20018;-84
2022/02/05 09:54:42;;;;;;;9.47;6.80;;;8.40;68.50;;;;;;5025054;28;20048;-84
2022/02/05 09:57:08;;;;;;;6.97;5.53;;;8.30;68.30;;;;;;5014651;28;20026;-84
2022/02/05 09:59:46;;;;;;;9.13;5.90;;;8.40;68.40;;;;;;5024255;28;20124;-84
2022/02/05 10:02:25;;;;;;;10.40;7.03;;;8.60;68.60;;;;;;5022573;28;20030;-84
2022/02/05 10:05:08;;;;;;;8.83;6.07;;;9.10;68.30;;;;;;5031015;28;20069;-84
2022/02/05 10:07:36;;;;;;;;;;;9.30;66.80;;;;;;5022047;28;20490;-84
2022/02/05 10:10:05;;;;;;;12.87;6.10;;;9.40;66.80;;;;;;5030200;28;19952;-84
2022/02/05 10:12:31;;;;;;;9.13;6.27;;;9.60;66.70;;;;;;5023000;28;20147;-85
2022/02/05 10:15:01;;;;;;;10.03;5.90;;;9.90;66.40;;;;;;5030268;28;20365;-84
2022/02/05 10:17:40;;;;;;;6.37;4.67;;;10.30;65.20;;;;;;5017208;28;20108;-84
2022/02/05 10:20:07;;;;;;;5.20;3.67;;;10.40;64.00;;;;;;5030013;28;20017;-84
2022/02/05 10:22:45;;;;;;;6.90;4.33;;;10.40;64.00;;;;;;5030288;28;20025;-84
2022/02/05 10:25:27;;;;;;;4.57;3.87;;;10.70;63.20;;;;;;5017236;28;20044;-84
2022/02/05 10:27:55;;;;;;;6.65;4.30;;;11.00;62.80;;;;;;5019826;28;20017;-84
2022/02/05 10:30:24;;;;;;;7.90;5.40;;;11.30;62.30;;;;;;5015389;28;20037;-84
2022/02/05 10:32:59;;;;;;;6.83;5.20;;;11.60;62.00;;;;;;5024876;28;20026;-85
2022/02/05 10:35:32;;;;;;;4.90;3.50;;;12.00;60.80;;;;;;5024035;28;20033;-85
2022/02/05 10:38:30;;;;;;;5.67;4.10;;;12.10;60.10;;;;;;5015926;28;20022;-85
2022/02/05 10:41:01;;;;;;;19.40;9.03;;;12.20;59.30;;;;;;5018032;28;20071;-85
2022/02/05 10:43:33;;;;;;;20.90;10.33;;;12.30;58.40;;;;;;5019542;28;20103;-85
2022/02/05 10:46:01;;;;;;;28.87;13.43;;;12.30;57.80;;;;;;5043780;28;20029;-84
2022/02/05 10:48:28;;;;;;;38.80;17.07;;;12.30;58.10;;;;;;5039215;28;20147;-85
2022/02/05 10:50:56;;;;;;;43.10;19.07;;;12.40;57.60;;;;;;5039745;28;20032;-84
2022/02/05 10:53:43;;;;;;;26.00;16.30;;;12.70;57.10;;;;;;5041197;28;20021;-84
2022/02/05 10:56:25;;;;;;;8.13;5.63;;;12.90;56.50;;;;;;5051044;28;20034;-84
2022/02/05 10:59:14;;;;;;;4.60;2.42;;;13.00;55.70;;;;;;5031846;28;20021;-85
2022/02/05 11:07:19;;;;;;;3.90;2.63;;;12.90;54.60;;;;;;5028135;28;20072;-85
2022/02/05 11:09:51;;;;;;;2.90;2.22;;;13.10;54.40;;;;;;5034459;28;20068;-85
2022/02/05 11:20:10;;;;;;;4.20;2.67;;;13.40;52.00;;;;;;5033316;28;20061;-85
2022/02/05 11:22:58;;;;;;;4.90;1.70;;;13.50;51.40;;;;;;5023428;28;20025;-85
2022/02/05 11:25:29;;;;;;;4.35;1.20;;;13.50;50.80;;;;;;5023315;28;20040;-84
2022/02/05 11:27:55;;;;;;;6.03;1.90;;;13.60;50.80;;;;;;5026809;28;20539;-85
2022/02/05 11:30:27;;;;;;;2.53;1.45;;;13.60;50.80;;;;;;5027789;28;20117;-85
2022/02/05 11:32:54;;;;;;;2.60;1.42;;;13.60;49.80;;;;;;5029143;28;20028;-85
2022/02/05 11:35:41;;;;;;;1.70;1.30;;;13.40;50.00;;;;;;5034078;28;20037;-85
2022/02/05 11:38:07;;;;;;;3.17;1.50;;;13.30;49.50;;;;;;5028674;28;20032;-85
2022/02/05 11:40:42;;;;;;;2.15;1.40;;;13.00;49.80;;;;;;5034588;28;20471;-85
2022/02/05 11:43:28;;;;;;;2.23;0.70;;;13.00;49.90;;;;;;5029709;28;20432;-85
2022/02/05 11:46:18;;;;;;;2.97;1.20;;;13.10;49.40;;;;;;5034029;28;20044;-84
2022/02/05 11:48:55;;;;;;;2.67;1.37;;;13.20;49.00;;;;;;5034115;28;20052;-85
2022/02/05 11:51:41;;;;;;;1.70;0.67;;;13.20;48.90;;;;;;5018668;28;20049;-85
2022/02/05 11:54:10;;;;;;;1.80;0.80;;;13.20;47.90;;;;;;5024471;28;20112;-85
2022/02/05 11:56:49;;;;;;;1.50;0.77;;;13.10;48.00;;;;;;5029192;28;20056;-85
2022/02/05 11:59:17;;;;;;;2.20;1.00;;;13.20;47.30;;;;;;5028041;28;20036;-85
2022/02/05 12:01:45;;;;;;;1.00;0.90;;;13.20;47.20;;;;;;5029887;28;20030;-85
2022/02/05 12:04:19;;;;;;;1.90;0.93;;;13.10;47.20;;;;;;5030555;28;20062;-85
2022/02/05 12:07:05;;;;;;;1.25;0.98;;;13.20;47.30;;;;;;5032823;28;20069;-85
2022/02/05 12:09:37;;;;;;;2.85;0.80;;;13.30;47.00;;;;;;5026889;28;20038;-85
2022/02/05 12:12:22;;;;;;;1.63;1.33;;;13.40;47.40;;;;;;5020326;28;20028;-85
2022/02/05 12:15:06;;;;;;;2.45;1.23;;;13.60;47.00;;;;;;5021533;28;20018;-85
2022/02/05 12:18:36;;;;;;;1.63;1.00;;;13.60;47.00;;;;;;5032407;28;20032;-85
2022/02/05 12:20:53;;;;;;;1.65;1.15;;;13.60;46.60;;;;;;5021003;28;20076;-85
2022/02/05 12:26:00;;;;;;;2.10;1.60;;;13.40;46.80;;;;;;5035276;28;20032;-85
2022/02/05 12:28:29;;;;;;;6.35;2.08;;;13.40;46.60;;;;;;5018379;28;20120;-85
2022/02/05 12:30:56;;;;;;;4.55;1.02;;;13.40;47.10;;;;;;5033738;28;20017;-85
2022/02/05 12:33:22;;;;;;;2.20;1.30;;;13.40;46.80;;;;;;5030523;28;20021;-85
2022/02/05 12:35:53;;;;;;;2.97;1.30;;;13.20;46.50;;;;;;5035250;28;20458;-85
2022/02/05 12:38:19;;;;;;;3.00;1.80;;;13.10;46.30;;;;;;5036053;28;20049;-85
2022/02/05 12:40:49;;;;;;;2.07;1.50;;;13.10;46.50;;;;;;5034211;28;20022;-85
2022/02/05 12:43:15;;;;;;;7.63;5.07;;;13.00;46.20;;;;;;5034916;28;20172;-85
2022/02/05 12:46:05;;;;;;;3.60;2.20;;;12.90;46.70;;;;;;5035228;28;20029;-85
2022/02/05 12:48:31;;;;;;;42.03;24.70;;;12.80;46.40;;;;;;5024519;28;20087;-85
2022/02/05 12:50:59;;;;;;;10.17;5.07;;;12.50;46.70;;;;;;5019031;28;20050;-85
2022/02/05 12:53:33;;;;;;;11.57;6.17;;;12.50;46.90;;;;;;5026495;28;20021;-85
2022/02/05 12:56:20;;;;;;;8.47;4.90;;;12.60;46.30;;;;;;5036098;28;20021;-85
2022/02/05 12:59:04;;;;;;;13.60;6.10;;;12.50;46.10;;;;;;5035278;28;20112;-85
2022/02/05 13:01:31;;;;;;;8.00;4.23;;;12.50;46.40;;;;;;5035454;28;20045;-85
2022/02/05 13:04:17;;;;;;;23.57;11.33;;;12.50;46.40;;;;;;5033830;28;20018;-85
2022/02/05 13:06:44;;;;;;;8.03;3.63;;;12.60;46.00;;;;;;5035359;28;20029;-85
2022/02/05 13:09:24;;;;;;;15.80;6.37;;;12.50;46.20;;;;;;5034684;28;20030;-85
2022/02/05 13:12:07;;;;;;;11.57;5.27;;;12.50;46.20;;;;;;5025354;28;20132;-85
2022/02/05 13:14:39;;;;;;;11.77;6.23;;;12.40;46.00;;;;;;5023512;28;20030;-84
2022/02/05 13:17:10;;;;;;;11.53;4.90;;;12.40;45.80;;;;;;5013985;28;20044;-85
2022/02/05 13:19:54;;;;;;;9.13;3.77;;;12.40;46.10;;;;;;5029356;28;20733;-85
2022/02/05 13:26:06;;;;;;;11.60;4.87;;;12.40;45.90;;;;;;5034385;28;20037;-85
2022/02/05 13:36:04;;;;;;;8.57;3.90;;;12.30;46.40;;;;;;5033040;28;20056;-85
2022/02/05 13:38:39;;;;;;;10.67;4.77;;;12.30;46.20;;;;;;5027651;28;20053;-86
2022/02/05 13:41:08;;;;;;;11.60;4.80;;;12.20;45.80;;;;;;5026914;28;20538;-86
2022/02/05 13:43:44;;;;;;;7.97;4.20;;;12.10;46.00;;;;;;5031022;28;20034;-86
2022/02/05 13:46:20;;;;;;;8.93;4.57;;;12.00;46.00;;;;;;5024068;28;20068;-86
2022/02/05 13:48:46;;;;;;;6.57;2.87;;;11.90;46.10;;;;;;5018813;28;20037;-86
2022/02/05 13:51:12;;;;;;;7.00;1.93;;;11.90;46.20;;;;;;5029880;28;20108;-85
2022/02/05 13:53:55;;;;;;;4.40;1.70;;;11.90;46.00;;;;;;5028310;28;20072;-85
2022/02/05 13:56:22;;;;;;;1.83;1.30;;;11.90;45.90;;;;;;5033033;28;20491;-86
2022/02/05 13:58:48;;;;;;;5.77;1.47;;;11.80;46.00;;;;;;5030593;28;20033;-85
2022/02/05 14:01:35;;;;;;;1.67;1.00;;;11.80;45.90;;;;;;5016553;28;20519;-85
2022/02/05 14:04:19;;;;;;;1.27;0.97;;;11.70;45.60;;;;;;5029410;28;20124;-85
2022/02/05 14:06:56;;;;;;;3.47;1.37;;;11.60;45.90;;;;;;5023255;28;20026;-86
2022/02/05 14:09:26;;;;;;;1.37;0.93;;;11.60;45.80;;;;;;5029881;28;20030;-85
2022/02/05 14:11:53;;;;;;;1.57;1.00;;;11.60;45.80;;;;;;5023545;28;20026;-85
2022/02/05 14:14:31;;;;;;;2.67;1.10;;;11.50;45.40;;;;;;5026052;28;20251;-85
2022/02/05 14:16:57;;;;;;;10.50;4.83;;;11.40;45.60;;;;;;5027158;28;20025;-85
2022/02/05 14:19:28;;;;;;;12.13;9.90;;;11.30;46.00;;;;;;5020174;28;20017;-85
2022/02/05 14:21:57;;;;;;;11.07;9.97;;;11.30;46.00;;;;;;5023127;28;20102;-85
2022/02/05 14:24:26;;;;;;;7.33;5.87;;;11.30;45.90;;;;;;5023089;28;20030;-85
2022/02/05 14:29:22;;;;;;;5.33;4.57;;;11.20;45.90;;;;;;5022599;28;20133;-85
2022/02/05 14:31:54;;;;;;;3.00;2.70;;;11.20;45.90;;;;;;5020818;28;20022;-85
2022/02/05 14:34:43;;;;;;;3.03;2.27;;;11.10;45.80;;;;;;5026132;28;20022;-85
2022/02/05 14:42:39;;;;;;;2.33;1.50;;;11.00;45.90;;;;;;5032281;28;20037;-85
2022/02/05 14:45:05;;;;;;;3.13;1.63;;;11.10;45.90;;;;;;5019901;28;20061;-86
2022/02/05 14:47:31;;;;;;;5.07;1.33;;;11.00;45.90;;;;;;5032207;28;20508;-85
2022/02/05 14:49:57;;;;;;;2.27;1.03;;;10.90;45.80;;;;;;5031067;28;20060;-85
2022/02/05 14:52:23;;;;;;;2.57;1.40;;;10.80;45.90;;;;;;5031256;28;20468;-85
2022/02/05 14:54:49;;;;;;;3.00;1.00;;;10.80;45.90;;;;;;5021746;28;20157;-85
2022/02/05 14:57:15;;;;;;;3.90;1.77;;;10.90;46.00;;;;;;5030938;28;20040;-85
2022/02/05 14:59:42;;;;;;;3.50;1.00;;;10.80;45.90;;;;;;5018879;28;20037;-85
2022/02/05 15:02:09;;;;;;;3.63;1.13;;;10.80;45.90;;;;;;5030885;28;20025;-85
2022/02/05 15:04:36;;;;;;;3.50;1.13;;;10.70;46.00;;;;;;5030390;28;20053;-85
2022/02/05 15:07:04;;;;;;;2.40;1.10;;;10.70;45.90;;;;;;5030842;28;20484;-86
2022/02/05 15:09:30;;;;;;;4.40;1.20;;;10.60;45.80;;;;;;5027712;28;20030;-85
2022/02/05 15:11:56;;;;;;;1.60;0.60;;;10.60;46.00;;;;;;5018237;28;20021;-85
2022/02/05 15:14:21;;;;;;;2.20;0.80;;;10.50;46.00;;;;;;5027787;28;20037;-85
2022/02/05 15:16:47;;;;;;;2.50;1.00;;;10.50;45.90;;;;;;5030778;28;20032;-85
2022/02/05 15:19:14;;;;;;;1.17;0.63;;;10.40;46.00;;;;;;5028712;28;20037;-85
2022/02/05 15:21:40;;;;;;;3.20;1.03;;;10.40;45.90;;;;;;5029803;28;20025;-85
2022/02/05 15:24:07;;;;;;;3.73;1.00;;;10.30;45.90;;;;;;5032354;28;20495;-85
2022/02/05 15:26:34;;;;;;;1.47;1.00;;;10.30;45.70;;;;;;5031469;28;20025;-85
2022/02/05 15:29:10;;;;;;;2.07;0.93;;;10.20;45.80;;;;;;5034255;28;20488;-85
2022/02/05 15:31:39;;;;;;;3.57;0.53;;;10.20;45.90;;;;;;5034434;28;20017;-85
2022/02/05 15:34:06;;;;;;;1.33;0.87;;;10.20;45.70;;;;;;5023192;28;20017;-85
2022/02/05 15:39:21;;;;;;;3.07;0.73;;;10.10;45.70;;;;;;5034602;28;20032;-84
2022/02/05 15:44:31;;;;;;;4.67;0.73;;;9.90;45.80;;;;;;5035264;28;20119;-85
2022/02/05 15:46:57;;;;;;;3.30;0.93;;;9.90;46.00;;;;;;5032283;28;20057;-85
2022/02/05 15:49:23;;;;;;;2.80;0.83;;;9.80;46.00;;;;;;5035220;28;20026;-85
2022/02/05 15:51:49;;;;;;;1.20;0.80;;;9.80;46.00;;;;;;5034609;28;20113;-85
2022/02/05 15:54:15;;;;;;;6.43;1.20;;;9.80;46.00;;;;;;5034136;28;20052;-85
2022/02/05 15:59:13;;;;;;;4.73;1.43;;;9.70;46.00;;;;;;5033402;28;20092;-87
2022/02/05 16:01:39;;;;;;;5.50;2.20;;;9.70;46.10;;;;;;5041261;28;20387;-85
2022/02/05 16:04:06;;;;;;;7.07;2.07;;;9.70;46.60;;;;;;5035193;28;20021;-85
2022/02/05 16:06:34;;;;;;;4.97;1.87;;;9.80;46.60;;;;;;5033770;28;20029;-85
2022/02/05 16:08:59;;;;;;;6.03;3.47;;;9.60;46.50;;;;;;5030462;28;20090;-85
2022/02/05 16:11:28;;;;;;;5.70;2.63;;;9.60;46.60;;;;;;5020532;28;20022;-85
2022/02/05 16:13:54;;;;;;;10.13;4.87;;;9.40;46.20;;;;;;5033591;28;20396;-85
2022/02/05 16:16:20;;;;;;;7.60;3.70;;;9.30;46.00;;;;;;5033429;28;20028;-85